createdAt,value
2017-07-09T00:01:41.856Z,98637.64
2017-07-09T00:04:11.317Z,98638.33
2017-07-09T00:06:40.800Z,98639.86
2017-07-09T00:09:10.268Z,98644.75
2017-07-09T00:11:39.758Z,98653.46
2017-07-09T00:14:09.212Z,98645.41
2017-07-09T00:16:38.685Z,98648.77
2017-07-09T00:19:08.190Z,98641.88
2017-07-09T00:21:37.659Z,98635.90
2017-07-09T00:24:07.152Z,98614.52
2017-07-09T00:26:36.628Z,98617.77
2017-07-09T00:29:06.091Z,98621.34
2017-07-09T00:31:35.596Z,98626.34
2017-07-09T00:34:05.055Z,98625.18
2017-07-09T00:36:34.524Z,98628.11
2017-07-09T00:39:03.723Z,98628.23
2017-07-09T00:41:33.194Z,98628.17
2017-07-09T00:44:02.671Z,98641.63
2017-07-09T00:46:32.143Z,98636.58
2017-07-09T00:49:01.610Z,98631.67
2017-07-09T00:51:31.772Z,98629.75
2017-07-09T00:54:01.266Z,98621.30
2017-07-09T00:56:30.744Z,98626.20
2017-07-09T00:59:00.203Z,98626.55
2017-07-09T01:01:29.695Z,98618.53
2017-07-09T01:03:59.171Z,98612.19
2017-07-09T01:06:28.635Z,98610.36
2017-07-09T01:08:58.121Z,98609.71
2017-07-09T01:11:27.583Z,98621.26
2017-07-09T01:13:57.053Z,98629.79
2017-07-09T01:16:26.539Z,98626.16
2017-07-09T01:18:56.013Z,98622.36
2017-07-09T01:21:25.504Z,98626.91
2017-07-09T01:23:54.963Z,98621.35
2017-07-09T01:26:24.427Z,98622.78
2017-07-09T01:28:53.914Z,98621.58
2017-07-09T01:31:23.387Z,98619.33
2017-07-09T01:33:52.842Z,98617.09
2017-07-09T01:36:22.326Z,98617.76
2017-07-09T01:38:51.807Z,98609.36
2017-07-09T01:41:22.197Z,98606.86
2017-07-09T01:43:51.669Z,98600.59
2017-07-09T01:46:21.139Z,98597.25
2017-07-09T01:48:50.624Z,98602.62
2017-07-09T01:51:20.119Z,98603.44
2017-07-09T01:53:49.607Z,98603.34
2017-07-09T01:56:18.782Z,98603.63
2017-07-09T01:58:47.744Z,98605.53
2017-07-09T02:01:17.227Z,98597.50
2017-07-09T02:03:46.664Z,98593.14
2017-07-09T02:06:16.129Z,98596.06
2017-07-09T02:08:45.591Z,98587.31
2017-07-09T02:11:15.037Z,98586.83
2017-07-09T02:13:44.509Z,98584.74
2017-07-09T02:16:13.976Z,98581.27
2017-07-09T02:18:43.430Z,98582.50
2017-07-09T02:21:12.886Z,98575.30
2017-07-09T02:23:42.335Z,98573.13
2017-07-09T02:26:11.797Z,98570.01
2017-07-09T02:28:41.264Z,98571.03
2017-07-09T02:31:10.738Z,98568.52
2017-07-09T02:33:40.998Z,98564.97
2017-07-09T02:36:10.463Z,98567.48
2017-07-09T02:38:39.926Z,98558.97
2017-07-09T02:41:09.385Z,98558.35
2017-07-09T02:43:38.842Z,98553.50
2017-07-09T02:46:08.385Z,98556.75
2017-07-09T02:48:37.839Z,98551.98
2017-07-09T02:51:07.302Z,98549.42
2017-07-09T02:53:36.766Z,98548.43
2017-07-09T02:56:06.253Z,98551.53
2017-07-09T02:58:35.732Z,98552.47
2017-07-09T03:01:05.217Z,98545.52
2017-07-09T03:03:34.706Z,98554.30
2017-07-09T03:06:04.164Z,98551.34
2017-07-09T03:08:33.624Z,98556.11
2017-07-09T03:11:03.106Z,98561.91
2017-07-09T03:13:32.614Z,98557.05
2017-07-09T03:16:02.071Z,98556.80
2017-07-09T03:18:31.541Z,98562.38
2017-07-09T03:21:01.008Z,98565.52
2017-07-09T03:23:30.473Z,98571.81
2017-07-09T03:25:59.937Z,98566.55
2017-07-09T03:28:29.402Z,98563.40
2017-07-09T03:30:58.862Z,98563.54
2017-07-09T03:33:28.325Z,98561.83
2017-07-09T03:35:57.788Z,98567.52
2017-07-09T03:38:27.277Z,98566.41
2017-07-09T03:40:56.748Z,98564.11
2017-07-09T03:43:26.196Z,98562.56
2017-07-09T03:45:55.654Z,98555.61
2017-07-09T03:48:25.175Z,98564.20
2017-07-09T03:50:54.454Z,98558.00
2017-07-09T03:53:24.165Z,98558.42
2017-07-09T03:55:53.638Z,98559.84
2017-07-09T03:58:22.754Z,98564.33
2017-07-09T04:00:52.214Z,98566.33
2017-07-09T04:03:21.675Z,98563.72
2017-07-09T04:05:51.131Z,98566.26
2017-07-09T04:08:20.618Z,98555.77
2017-07-09T04:10:50.059Z,98557.39
2017-07-09T04:13:19.535Z,98564.34
2017-07-09T04:15:48.989Z,98561.97
2017-07-09T04:18:18.445Z,98562.38
2017-07-09T04:20:47.600Z,98567.02
2017-07-09T04:23:17.041Z,98567.02
2017-07-09T04:25:46.533Z,98570.68
2017-07-09T04:28:15.977Z,98565.33
2017-07-09T04:30:45.438Z,98572.24
2017-07-09T04:33:14.926Z,98576.19
2017-07-09T04:35:44.382Z,98580.73
2017-07-09T04:38:13.833Z,98588.31
2017-07-09T04:40:43.302Z,98593.95
2017-07-09T04:43:12.771Z,98590.78
2017-07-09T04:45:42.221Z,98584.50
2017-07-09T04:48:11.674Z,98584.34
2017-07-09T04:50:41.141Z,98594.96
2017-07-09T04:53:10.650Z,98593.69
2017-07-09T04:55:40.106Z,98600.52
2017-07-09T04:58:09.564Z,98597.16
2017-07-09T05:00:39.021Z,98602.70
2017-07-09T05:03:08.487Z,98590.63
2017-07-09T05:05:37.954Z,98580.66
2017-07-09T05:08:07.091Z,98578.33
2017-07-09T05:10:36.811Z,98575.34
2017-07-09T05:13:06.281Z,98574.40
2017-07-09T05:15:35.734Z,98575.78
2017-07-09T05:18:05.210Z,98580.24
2017-07-09T05:20:34.677Z,98586.70
2017-07-09T05:23:04.160Z,98588.55
2017-07-09T05:25:33.721Z,98582.47
2017-07-09T05:28:03.168Z,98582.72
2017-07-09T05:30:32.630Z,98576.72
2017-07-09T05:33:02.097Z,98572.17
2017-07-09T05:35:31.559Z,98570.73
2017-07-09T05:38:01.012Z,98573.30
2017-07-09T05:40:30.477Z,98578.30
2017-07-09T05:42:59.946Z,98579.67
2017-07-09T05:45:29.394Z,98585.88
2017-07-09T05:47:58.889Z,98591.72
2017-07-09T05:50:28.339Z,98584.02
2017-07-09T05:52:57.812Z,98589.61
2017-07-09T05:55:27.268Z,98595.82
2017-07-09T05:57:56.718Z,98594.70
2017-07-09T06:00:26.171Z,98591.54
2017-07-09T06:02:55.654Z,98591.34
2017-07-09T06:05:25.118Z,98597.37
2017-07-09T06:07:54.584Z,98596.17
2017-07-09T06:10:24.047Z,98604.41
2017-07-09T06:12:53.503Z,98594.12
2017-07-09T06:15:22.966Z,98598.02
2017-07-09T06:17:52.434Z,98603.11
2017-07-09T06:20:21.898Z,98595.89
2017-07-09T06:22:51.389Z,98591.67
2017-07-09T06:25:22.497Z,98589.02
2017-07-09T06:27:51.965Z,98591.98
2017-07-09T06:30:21.287Z,98592.44
2017-07-09T06:32:50.766Z,98591.23
2017-07-09T06:35:20.220Z,98594.44
2017-07-09T06:37:49.682Z,98598.64
2017-07-09T06:40:19.175Z,98602.94
2017-07-09T06:42:48.634Z,98602.26
2017-07-09T06:45:18.959Z,98606.73
2017-07-09T06:47:48.420Z,98596.34
2017-07-09T06:50:17.882Z,98592.95
2017-07-09T06:52:47.353Z,98596.97
2017-07-09T06:55:16.854Z,98598.41
2017-07-09T06:57:46.289Z,98596.34
2017-07-09T07:00:15.765Z,98604.75
2017-07-09T07:02:45.238Z,98603.62
2017-07-09T07:05:15.002Z,98601.98
2017-07-09T07:07:44.468Z,98595.50
2017-07-09T07:10:13.928Z,98603.80
2017-07-09T07:12:43.393Z,98602.33
2017-07-09T07:15:12.874Z,98614.12
2017-07-09T07:17:42.342Z,98609.89
2017-07-09T07:20:11.801Z,98607.97
2017-07-09T07:22:41.262Z,98608.94
2017-07-09T07:25:10.748Z,98605.61
2017-07-09T07:27:40.228Z,98606.57
2017-07-09T07:30:09.376Z,98603.23
2017-07-09T07:32:38.879Z,98604.55
2017-07-09T07:35:08.393Z,98607.88
2017-07-09T07:37:37.914Z,98607.48
2017-07-09T07:40:07.390Z,98610.17
2017-07-09T07:42:36.830Z,98608.95
2017-07-09T07:45:06.303Z,98611.66
2017-07-09T07:47:35.795Z,98608.95
2017-07-09T07:50:05.270Z,98610.97
2017-07-09T07:52:34.732Z,98613.02
2017-07-09T07:55:04.205Z,98608.27
2017-07-09T07:57:33.657Z,98604.95
2017-07-09T08:00:03.133Z,98595.16
2017-07-09T08:02:32.594Z,98596.63
2017-07-09T08:05:02.109Z,98599.39
2017-07-09T08:07:31.577Z,98600.80
2017-07-09T08:10:01.041Z,98606.42
2017-07-09T08:12:30.491Z,98610.22
2017-07-09T08:14:59.954Z,98608.23
2017-07-09T08:17:29.431Z,98606.53
2017-07-09T08:19:58.911Z,98605.15
2017-07-09T08:22:28.424Z,98605.03
2017-07-09T08:24:57.888Z,98605.36
2017-07-09T08:27:27.341Z,98613.52
2017-07-09T08:29:56.807Z,98617.19
2017-07-09T08:32:26.273Z,98615.00
2017-07-09T08:34:55.720Z,98615.59
2017-07-09T08:37:25.162Z,98617.34
2017-07-09T08:39:54.631Z,98610.50
2017-07-09T08:42:24.070Z,98620.56
2017-07-09T08:44:53.515Z,98622.19
2017-07-09T08:47:22.969Z,98623.43
2017-07-09T08:49:52.429Z,98617.09
2017-07-09T08:52:21.887Z,98620.70
2017-07-09T08:54:51.361Z,98623.08
2017-07-09T08:57:20.824Z,98629.22
2017-07-09T08:59:50.267Z,98627.03
2017-07-09T09:02:19.720Z,98625.02
2017-07-09T09:04:49.174Z,98629.69
2017-07-09T09:07:18.615Z,98626.48
2017-07-09T09:09:48.053Z,98617.25
2017-07-09T09:12:17.518Z,98622.42
2017-07-09T09:14:47.015Z,98623.41
2017-07-09T09:17:16.480Z,98631.92
2017-07-09T09:19:45.930Z,98621.41
2017-07-09T09:22:15.373Z,98618.90
2017-07-09T09:24:44.855Z,98620.69
2017-07-09T09:27:13.962Z,98611.81
2017-07-09T09:29:43.408Z,98607.44
2017-07-09T09:32:12.857Z,98608.08
2017-07-09T09:34:42.317Z,98601.89
2017-07-09T09:37:11.809Z,98604.17
2017-07-09T09:39:41.255Z,98609.08
2017-07-09T09:42:10.710Z,98609.39
2017-07-09T09:44:40.147Z,98604.23
2017-07-09T09:47:09.607Z,98603.09
2017-07-09T09:49:38.710Z,98613.75
2017-07-09T09:52:08.165Z,98614.61
2017-07-09T09:54:37.617Z,98610.11
2017-07-09T09:57:07.072Z,98613.66
2017-07-09T09:59:36.543Z,98604.98
2017-07-09T10:02:05.998Z,98604.54
2017-07-09T10:04:35.441Z,98606.33
2017-07-09T10:07:04.885Z,98600.27
2017-07-09T10:09:34.337Z,98594.01
2017-07-09T10:12:03.786Z,98604.66
2017-07-09T10:14:33.254Z,98597.06
2017-07-09T10:17:02.713Z,98597.67
2017-07-09T10:19:32.147Z,98592.94
2017-07-09T10:22:01.613Z,98591.30
2017-07-09T10:24:31.092Z,98591.71
2017-07-09T10:27:00.544Z,98583.99
2017-07-09T10:29:30.017Z,98597.87
2017-07-09T10:31:59.463Z,98577.02
2017-07-09T10:34:28.905Z,98580.41
2017-07-09T10:36:58.365Z,98574.92
2017-07-09T10:39:27.829Z,98585.14
2017-07-09T10:41:57.272Z,98574.38
2017-07-09T10:44:26.737Z,98578.16
2017-07-09T10:46:56.214Z,98569.78
2017-07-09T10:49:25.709Z,98574.33
2017-07-09T10:51:55.142Z,98572.96
2017-07-09T10:54:24.584Z,98569.42
2017-07-09T10:56:54.034Z,98572.64
2017-07-09T10:59:23.470Z,98571.13
2017-07-09T11:01:52.936Z,98568.57
2017-07-09T11:04:22.398Z,98561.44
2017-07-09T11:06:51.850Z,98568.07
2017-07-09T11:09:21.301Z,98563.59
2017-07-09T11:11:50.740Z,98567.90
2017-07-09T11:14:20.175Z,98562.48
2017-07-09T11:16:49.638Z,98568.19
2017-07-09T11:19:18.738Z,98560.00
2017-07-09T11:21:48.186Z,98554.22
2017-07-09T11:24:17.689Z,98562.34
2017-07-09T11:26:47.162Z,98552.29
2017-07-09T11:29:16.834Z,98557.63
2017-07-09T11:31:46.291Z,98560.44
2017-07-09T11:34:15.741Z,98557.64
2017-07-09T11:36:45.202Z,98554.98
2017-07-09T11:39:14.656Z,98544.11
2017-07-09T11:41:44.089Z,98535.95
2017-07-09T11:44:13.577Z,98532.20
2017-07-09T11:46:43.048Z,98535.08
2017-07-09T11:49:12.473Z,98534.34
2017-07-09T11:51:41.935Z,98537.85
2017-07-09T11:54:11.391Z,98534.64
2017-07-09T11:56:40.833Z,98547.11
2017-07-09T11:59:10.286Z,98550.59
2017-07-09T12:01:39.740Z,98549.55
2017-07-09T12:04:09.197Z,98540.92
2017-07-09T12:06:38.293Z,98540.88
2017-07-09T12:09:08.467Z,98541.58
2017-07-09T12:11:37.940Z,98542.11
2017-07-09T12:14:07.394Z,98547.39
2017-07-09T12:16:36.850Z,98537.48
2017-07-09T12:19:06.313Z,98538.88
2017-07-09T12:21:35.757Z,98540.05
2017-07-09T12:24:05.218Z,98536.72
2017-07-09T12:26:34.697Z,98531.37
2017-07-09T12:29:04.142Z,98532.02
2017-07-09T12:31:33.592Z,98523.77
2017-07-09T12:34:03.039Z,98518.88
2017-07-09T12:36:32.494Z,98513.88
2017-07-09T12:39:01.946Z,98506.09
2017-07-09T12:41:31.418Z,98505.77
2017-07-09T12:44:00.700Z,98498.31
2017-07-09T12:46:30.153Z,98500.94
2017-07-09T12:48:59.614Z,98494.06
2017-07-09T12:51:29.065Z,98493.64
2017-07-09T12:53:58.333Z,98488.69
2017-07-09T12:56:27.776Z,98484.06
2017-07-09T12:58:57.231Z,98474.28
2017-07-09T13:01:26.691Z,98468.27
2017-07-09T13:03:56.129Z,98459.70
2017-07-09T13:06:25.620Z,98451.30
2017-07-09T13:08:55.113Z,98448.70
2017-07-09T13:11:24.368Z,98451.00
2017-07-09T13:13:53.814Z,98449.37
2017-07-09T13:16:23.269Z,98445.93
2017-07-09T13:18:52.803Z,98443.25
2017-07-09T13:21:22.277Z,98441.77
2017-07-09T13:23:51.534Z,98436.91
2017-07-09T13:26:21.030Z,98435.88
2017-07-09T13:28:50.464Z,98424.58
2017-07-09T13:31:19.927Z,98422.86
2017-07-09T13:33:49.493Z,98417.37
2017-07-09T13:36:19.185Z,98418.13
2017-07-09T13:38:48.647Z,98414.52
2017-07-09T13:41:18.100Z,98411.81
2017-07-09T13:43:47.622Z,98396.08
2017-07-09T13:46:16.726Z,98398.26
2017-07-09T13:48:46.094Z,98384.70
2017-07-09T13:51:15.555Z,98377.29
2017-07-09T13:53:44.803Z,98378.70
2017-07-09T13:56:14.317Z,98377.87
2017-07-09T13:58:43.771Z,98367.19
2017-07-09T14:01:13.225Z,98368.53
2017-07-09T14:03:42.691Z,98368.38
2017-07-09T14:06:12.297Z,98368.31
2017-07-09T14:08:41.979Z,98358.92
2017-07-09T14:11:11.450Z,98347.63
2017-07-09T14:13:41.219Z,98351.00
2017-07-09T14:16:10.495Z,98348.23
2017-07-09T14:18:40.080Z,98342.32
2017-07-09T14:21:09.551Z,98331.97
2017-07-09T14:23:39.043Z,98334.10
2017-07-09T14:26:08.501Z,98327.86
2017-07-09T14:28:37.968Z,98328.38
2017-07-09T14:31:07.440Z,98327.75
2017-07-09T14:33:36.887Z,98322.06
2017-07-09T14:36:06.364Z,98321.44
2017-07-09T14:38:35.987Z,98320.91
2017-07-09T14:41:05.415Z,98321.20
2017-07-09T14:43:34.900Z,98328.80
2017-07-09T14:46:04.367Z,98325.83
2017-07-09T14:48:33.795Z,98322.29
2017-07-09T14:51:03.085Z,98309.30
2017-07-09T14:53:32.543Z,98311.39
2017-07-09T14:56:02.078Z,98312.73
2017-07-09T14:58:31.513Z,98311.16
2017-07-09T15:01:00.968Z,98311.06
2017-07-09T15:03:31.085Z,98312.34
2017-07-09T15:06:00.630Z,98310.20
2017-07-09T15:08:30.523Z,98311.14
2017-07-09T15:11:01.082Z,98309.78
2017-07-09T15:13:31.811Z,98297.70
2017-07-09T15:16:02.113Z,98291.92
2017-07-09T15:18:33.483Z,98283.22
2017-07-09T15:21:04.203Z,98272.58
2017-07-09T15:23:34.505Z,98275.57
2017-07-09T15:26:04.609Z,98266.95
2017-07-09T15:28:35.122Z,98266.55
2017-07-09T15:31:05.144Z,98265.69
2017-07-09T15:33:35.408Z,98264.35
2017-07-09T15:36:05.419Z,98258.55
2017-07-09T15:38:36.303Z,98257.99
2017-07-09T15:41:06.896Z,98254.13
2017-07-09T15:43:36.917Z,98257.69
2017-07-09T15:46:07.218Z,98258.52
2017-07-09T15:48:37.617Z,98250.18
2017-07-09T15:51:07.480Z,98252.69
2017-07-09T15:53:37.449Z,98261.20
2017-07-09T15:56:08.498Z,98252.36
2017-07-09T15:58:38.902Z,98243.30
2017-07-09T16:01:09.062Z,98241.89
2017-07-09T16:03:39.599Z,98239.13
2017-07-09T16:06:09.626Z,98229.60
2017-07-09T16:08:39.829Z,98227.09
2017-07-09T16:11:10.006Z,98224.13
2017-07-09T16:13:40.465Z,98224.20
2017-07-09T16:16:10.321Z,98214.40
2017-07-09T16:18:40.455Z,98216.45
2017-07-09T16:21:10.625Z,98199.80
2017-07-09T16:23:40.907Z,98200.78
2017-07-09T16:26:10.964Z,98196.34
2017-07-09T16:28:41.739Z,98202.73
2017-07-09T16:31:12.070Z,98198.36
2017-07-09T16:33:42.591Z,98194.47
2017-07-09T16:36:12.408Z,98198.03
2017-07-09T16:38:42.275Z,98197.37
2017-07-09T16:41:12.387Z,98201.04
2017-07-09T16:43:42.351Z,98190.58
2017-07-09T16:46:12.771Z,98194.98
2017-07-09T16:48:42.742Z,98194.70
2017-07-09T16:51:13.390Z,98193.09
2017-07-09T16:53:43.444Z,98200.25
2017-07-09T16:56:13.541Z,98204.44
2017-07-09T16:58:42.997Z,98209.23
2017-07-09T17:01:12.450Z,98208.28
2017-07-09T17:03:41.926Z,98203.28
2017-07-09T17:06:11.392Z,98201.13
2017-07-09T17:08:40.823Z,98198.81
2017-07-09T17:11:10.299Z,98199.11
2017-07-09T17:13:39.731Z,98200.77
2017-07-09T17:16:09.175Z,98199.80
2017-07-09T17:18:38.639Z,98197.03
2017-07-09T17:21:08.096Z,98194.83
2017-07-09T17:23:37.553Z,98192.60
2017-07-09T17:26:07.005Z,98191.02
2017-07-09T17:28:36.515Z,98184.75
2017-07-09T17:31:05.986Z,98185.38
2017-07-09T17:33:35.464Z,98185.38
2017-07-09T17:36:04.902Z,98191.73
2017-07-09T17:38:34.347Z,98192.11
2017-07-09T17:41:03.801Z,98192.30
2017-07-09T17:43:33.285Z,98182.67
2017-07-09T17:46:02.737Z,98181.47
2017-07-09T17:48:32.193Z,98177.40
2017-07-09T17:51:01.331Z,98181.95
2017-07-09T17:53:30.808Z,98184.33
2017-07-09T17:56:00.298Z,98180.16
2017-07-09T17:58:29.873Z,98177.75
2017-07-09T18:00:59.326Z,98178.22
2017-07-09T18:03:28.796Z,98180.98
2017-07-09T18:05:58.252Z,98196.47
2017-07-09T18:08:27.886Z,98207.00
2017-07-09T18:10:57.523Z,98210.57
2017-07-09T18:13:27.007Z,98212.95
2017-07-09T18:15:56.471Z,98230.14
2017-07-09T18:18:25.775Z,98234.03
2017-07-09T18:20:56.201Z,98244.05
2017-07-09T18:23:27.182Z,98248.14
2017-07-09T18:25:57.377Z,98248.18
2017-07-09T18:28:27.830Z,98249.80
2017-07-09T18:30:58.111Z,98248.32
2017-07-09T18:33:28.777Z,98255.80
2017-07-09T18:35:59.027Z,98259.61
2017-07-09T18:38:29.237Z,98270.50
2017-07-09T18:40:59.555Z,98280.48
2017-07-09T18:43:30.293Z,98284.41
2017-07-09T18:46:00.721Z,98297.67
2017-07-09T18:48:31.044Z,98305.20
2017-07-09T18:51:01.777Z,98313.23
2017-07-09T18:53:32.127Z,98314.73
2017-07-09T18:56:02.459Z,98322.35
2017-07-09T18:58:33.222Z,98332.97
2017-07-09T19:01:04.716Z,98334.55
2017-07-09T19:03:35.031Z,98337.33
2017-07-09T19:06:05.490Z,98344.10
2017-07-09T19:08:37.094Z,98380.89
2017-07-09T19:11:08.486Z,98386.38
2017-07-09T19:13:38.867Z,98390.20
2017-07-09T19:16:08.961Z,98371.05
2017-07-09T19:18:38.936Z,98366.48
2017-07-09T19:21:09.317Z,98370.65
2017-07-09T19:23:39.246Z,98382.02
2017-07-09T19:26:08.909Z,98384.32
2017-07-09T19:28:38.666Z,98388.48
2017-07-09T19:31:09.124Z,98376.16
2017-07-09T19:33:39.688Z,98359.28
2017-07-09T19:36:09.773Z,98335.83
2017-07-09T19:38:39.991Z,98319.43
2017-07-09T19:41:10.618Z,98289.64
2017-07-09T19:43:40.878Z,98268.03
2017-07-09T19:46:11.412Z,98262.34
2017-07-09T19:48:42.063Z,98272.05
2017-07-09T19:51:12.395Z,98264.86
2017-07-09T19:53:43.151Z,98268.55
2017-07-09T19:56:13.668Z,98270.89
2017-07-09T19:58:44.161Z,98273.45
2017-07-09T20:01:14.690Z,98292.74
2017-07-09T20:03:44.954Z,98324.20
2017-07-09T20:06:14.979Z,98329.25
2017-07-09T20:08:45.586Z,98322.21
2017-07-09T20:11:15.648Z,98304.09
2017-07-09T20:13:46.138Z,98295.64
2017-07-09T20:16:16.684Z,98318.91
2017-07-09T20:18:46.654Z,98337.38
2017-07-09T20:21:16.835Z,98333.13
2017-07-09T20:23:47.399Z,98342.11
2017-07-09T20:26:17.471Z,98352.42
2017-07-09T20:28:47.102Z,98363.55
2017-07-09T20:31:17.315Z,98356.39
2017-07-09T20:33:48.148Z,98364.38
2017-07-09T20:36:18.077Z,98360.80
2017-07-09T20:38:48.610Z,98368.32
2017-07-09T20:41:19.115Z,98371.38
2017-07-09T20:43:49.800Z,98378.17
2017-07-09T20:46:20.083Z,98371.80
2017-07-09T20:48:50.150Z,98381.98
2017-07-09T20:51:20.173Z,98383.67
2017-07-09T20:53:50.531Z,98380.72
2017-07-09T20:56:20.962Z,98368.71
2017-07-09T20:58:50.992Z,98361.79
2017-07-09T21:01:20.575Z,98361.86
2017-07-09T21:03:50.023Z,98352.36
2017-07-09T21:06:19.134Z,98360.73
2017-07-09T21:08:48.609Z,98366.12
2017-07-09T21:11:18.059Z,98365.34
2017-07-09T21:13:47.501Z,98361.64
2017-07-09T21:16:16.971Z,98352.52
2017-07-09T21:18:46.085Z,98348.51
2017-07-09T21:21:15.548Z,98353.40
2017-07-09T21:23:45.017Z,98355.02
2017-07-09T21:26:14.498Z,98358.57
2017-07-09T21:28:43.967Z,98352.78
2017-07-09T21:31:13.437Z,98352.38
2017-07-09T21:33:42.876Z,98353.34
2017-07-09T21:36:12.340Z,98364.45
2017-07-09T21:38:41.794Z,98365.58
2017-07-09T21:41:11.081Z,98362.93
2017-07-09T21:43:40.448Z,98361.80
2017-07-09T21:46:09.901Z,98363.42
2017-07-09T21:48:39.477Z,98364.38
2017-07-09T21:51:08.918Z,98363.57
2017-07-09T21:53:38.380Z,98353.52
2017-07-09T21:56:07.818Z,98341.12
2017-07-09T21:58:37.272Z,98340.78
2017-07-09T22:01:06.738Z,98326.28
2017-07-09T22:03:36.007Z,98323.05
2017-07-09T22:06:05.466Z,98317.34
2017-07-09T22:08:34.733Z,98309.03
2017-07-09T22:11:04.185Z,98309.44
2017-07-09T22:13:33.648Z,98315.23
2017-07-09T22:16:03.124Z,98297.92
2017-07-09T22:18:32.575Z,98282.70
2017-07-09T22:21:02.057Z,98280.59
2017-07-09T22:23:31.530Z,98273.02
2017-07-09T22:26:00.993Z,98265.15
2017-07-09T22:28:30.478Z,98256.28
2017-07-09T22:30:59.911Z,98244.11
2017-07-09T22:33:29.374Z,98238.53
2017-07-09T22:35:58.835Z,98233.05
2017-07-09T22:38:28.314Z,98218.06
2017-07-09T22:40:57.860Z,98208.53
2017-07-09T22:43:27.331Z,98207.20
2017-07-09T22:45:56.595Z,98213.02
2017-07-09T22:48:26.036Z,98218.56
2017-07-09T22:50:55.506Z,98227.54
2017-07-09T22:53:24.942Z,98229.27
2017-07-09T22:55:54.389Z,98241.37
2017-07-09T22:58:23.893Z,98258.06
2017-07-09T23:00:53.361Z,98270.63
2017-07-09T23:03:22.863Z,98285.89
2017-07-09T23:05:52.313Z,98291.38
2017-07-09T23:08:21.753Z,98294.03
2017-07-09T23:10:51.192Z,98295.00
2017-07-09T23:13:20.637Z,98295.18
2017-07-09T23:15:50.113Z,98275.45
2017-07-09T23:18:19.566Z,98267.30
2017-07-09T23:20:49.018Z,98268.70
2017-07-09T23:23:18.469Z,98256.78
2017-07-09T23:25:47.931Z,98250.43
2017-07-09T23:28:17.390Z,98234.31
2017-07-09T23:30:46.841Z,98212.41
2017-07-09T23:33:16.294Z,98205.56
2017-07-09T23:35:45.769Z,98198.91
2017-07-09T23:38:15.462Z,98178.19
2017-07-09T23:40:44.909Z,98173.72
2017-07-09T23:43:14.385Z,98155.11
2017-07-09T23:45:43.839Z,98143.83
2017-07-09T23:48:13.327Z,98114.84
2017-07-09T23:50:42.767Z,98093.27
2017-07-09T23:53:12.242Z,98104.71
2017-07-09T23:55:41.686Z,98115.34
2017-07-09T23:58:11.142Z,98090.07
